createdAt,value
2023-05-25T00:01:35.644Z,99312.02
2023-05-25T00:06:42.983Z,99311.48
2023-05-25T00:11:45.575Z,99313.77
2023-05-25T00:16:51.632Z,99318.70
2023-05-25T00:21:54.765Z,99320.77
2023-05-25T00:27:01.237Z,99327.39
2023-05-25T00:32:06.726Z,99321.35
2023-05-25T00:37:09.035Z,99316.53
2023-05-25T00:42:24.554Z,99319.08
2023-05-25T00:47:27.654Z,99323.02
2023-05-25T00:52:30.049Z,99323.33
2023-05-25T00:57:57.357Z,99318.88
2023-05-25T01:03:14.722Z,99318.48
2023-05-25T01:08:28.693Z,99318.52
2023-05-25T01:13:34.459Z,99317.02
2023-05-25T01:18:39.943Z,99314.50
2023-05-25T01:23:54.220Z,99313.50
2023-05-25T01:29:01.954Z,99315.09
2023-05-25T01:34:09.629Z,99322.61
2023-05-25T01:39:12.798Z,99327.73
2023-05-25T01:44:19.335Z,99331.36
2023-05-25T01:49:52.408Z,99327.52
2023-05-25T01:55:06.452Z,99330.73
2023-05-25T02:00:21.702Z,99330.48
2023-05-25T02:05:23.870Z,99327.58
2023-05-25T02:10:26.232Z,99326.05
2023-05-25T02:15:34.098Z,99322.40
2023-05-25T02:20:37.786Z,99328.58
2023-05-25T02:25:39.816Z,99330.06
2023-05-25T02:30:42.030Z,99327.90
2023-05-25T02:35:47.147Z,99324.98
2023-05-25T02:40:58.572Z,99326.48
2023-05-25T02:46:09.812Z,99331.07
2023-05-25T02:51:15.210Z,99331.95
2023-05-25T02:56:31.404Z,99323.82
2023-05-25T03:06:51.810Z,99320.95
2023-05-25T03:12:03.522Z,99326.72
2023-05-25T03:17:07.835Z,99325.71
2023-05-25T03:22:19.043Z,99328.33
2023-05-25T03:27:21.450Z,99329.63
2023-05-25T03:32:25.267Z,99331.63
2023-05-25T03:37:31.101Z,99330.45
2023-05-25T03:42:37.480Z,99331.98
2023-05-25T03:47:40.797Z,99333.95
2023-05-25T03:52:43.829Z,99341.16
2023-05-25T03:57:45.992Z,99344.13
2023-05-25T04:02:48.568Z,99348.20
2023-05-25T04:07:52.234Z,99350.34
2023-05-25T04:12:57.512Z,99356.63
2023-05-25T04:18:03.040Z,99362.36
2023-05-25T04:23:06.331Z,99371.40
2023-05-25T04:28:09.353Z,99377.84
2023-05-25T04:33:22.123Z,99379.61
2023-05-25T04:38:35.507Z,99380.14
2023-05-25T04:43:40.428Z,99382.90
2023-05-25T04:48:48.536Z,99387.93
2023-05-25T04:53:51.310Z,99398.73
2023-05-25T04:58:54.166Z,99396.98
2023-05-25T05:03:59.834Z,99397.47
2023-05-25T05:09:03.292Z,99400.77
2023-05-25T05:14:08.630Z,99406.48
2023-05-25T05:19:11.860Z,99412.08
2023-05-25T05:24:16.446Z,99421.75
2023-05-25T05:29:19.984Z,99423.26
2023-05-25T05:34:22.997Z,99423.39
2023-05-25T05:39:27.379Z,99416.63
2023-05-25T05:44:30.948Z,99422.27
2023-05-25T05:49:35.045Z,99422.79
2023-05-25T05:54:38.668Z,99430.11
2023-05-25T05:59:55.884Z,99434.61
2023-05-25T06:04:58.375Z,99439.95
2023-05-25T06:10:01.097Z,99442.98
2023-05-25T06:15:03.723Z,99446.84
2023-05-25T06:20:11.150Z,99454.27
2023-05-25T06:25:40.457Z,99456.73
2023-05-25T06:30:43.775Z,99464.12
2023-05-25T06:35:52.761Z,99463.10
2023-05-25T06:41:02.666Z,99470.02
2023-05-25T06:46:05.109Z,99468.34
2023-05-25T06:51:17.084Z,99471.48
2023-05-25T06:56:20.056Z,99469.09
2023-05-25T07:01:25.789Z,99474.23
2023-05-25T07:06:28.157Z,99473.17
2023-05-25T07:11:30.218Z,99478.92
2023-05-25T07:16:33.252Z,99484.27
2023-05-25T07:21:37.270Z,99484.45
2023-05-25T07:26:50.680Z,99482.48
2023-05-25T07:31:52.696Z,99488.72
2023-05-25T07:37:33.457Z,99489.17
2023-05-25T07:42:36.751Z,99498.20
2023-05-25T07:47:41.943Z,99502.95
2023-05-25T07:52:45.266Z,99504.39
2023-05-25T07:57:47.434Z,99502.73
2023-05-25T08:02:53.326Z,99499.59
2023-05-25T08:07:56.323Z,99500.33
2023-05-25T08:12:59.208Z,99495.71
2023-05-25T08:18:06.665Z,99494.68
2023-05-25T08:23:09.690Z,99492.67
2023-05-25T08:28:11.738Z,99493.94
2023-05-25T08:33:15.065Z,99490.95
2023-05-25T08:38:17.108Z,99490.06
2023-05-25T08:43:28.704Z,99494.64
2023-05-25T08:48:41.168Z,99498.29
2023-05-25T08:53:45.360Z,99500.64
2023-05-25T08:59:16.882Z,99502.59
2023-05-25T09:04:21.188Z,99498.89
2023-05-25T09:09:23.810Z,99497.27
2023-05-25T09:14:28.422Z,99503.42
2023-05-25T09:19:30.547Z,99507.70
2023-05-25T09:24:36.980Z,99507.94
2023-05-25T09:29:49.534Z,99501.60
2023-05-25T09:34:51.803Z,99500.95
2023-05-25T09:39:53.748Z,99502.25
2023-05-25T09:44:55.714Z,99499.42
2023-05-25T09:50:00.155Z,99504.27
2023-05-25T09:55:10.478Z,99504.55
2023-05-25T10:00:13.245Z,99499.32
2023-05-25T10:05:16.049Z,99503.82
2023-05-25T10:10:19.253Z,99503.83
2023-05-25T10:15:22.427Z,99501.69
2023-05-25T10:20:29.631Z,99498.49
2023-05-25T10:26:09.527Z,99500.13
2023-05-25T10:31:18.774Z,99495.84
2023-05-25T10:36:41.233Z,99499.23
2023-05-25T10:41:46.150Z,99501.13
2023-05-25T10:46:55.671Z,99498.67
2023-05-25T10:51:59.854Z,99501.18
2023-05-25T10:57:16.145Z,99502.48
2023-05-25T11:02:23.766Z,99505.71
2023-05-25T11:07:26.099Z,99504.77
2023-05-25T11:12:28.509Z,99500.55
2023-05-25T11:17:32.879Z,99498.39
2023-05-25T11:22:37.388Z,99494.27
2023-05-25T11:27:47.372Z,99492.02
2023-05-25T11:32:50.918Z,99491.05
2023-05-25T11:37:55.430Z,99490.51
2023-05-25T11:43:00.817Z,99487.84
2023-05-25T11:48:05.176Z,99490.12
2023-05-25T11:53:07.377Z,99483.56
2023-05-25T11:58:09.800Z,99480.26
2023-05-25T12:03:33.184Z,99479.16
2023-05-25T12:08:36.622Z,99476.95
2023-05-25T12:13:41.016Z,99470.82
2023-05-25T12:18:43.443Z,99467.50
2023-05-25T12:23:46.357Z,99470.25
2023-05-25T12:29:10.286Z,99471.94
2023-05-25T12:34:13.551Z,99470.80
2023-05-25T12:39:31.744Z,99466.88
2023-05-25T12:44:36.047Z,99464.17
2023-05-25T12:49:39.057Z,99459.51
2023-05-25T12:54:46.140Z,99457.25
2023-05-25T12:59:56.429Z,99448.68
2023-05-25T13:04:58.878Z,99448.36
2023-05-25T13:10:00.924Z,99449.22
2023-05-25T13:15:09.858Z,99447.54
2023-05-25T13:20:16.235Z,99441.17
2023-05-25T13:25:20.936Z,99446.76
2023-05-25T13:30:23.684Z,99440.33
2023-05-25T13:35:41.863Z,99440.61
2023-05-25T13:40:45.485Z,99440.60
2023-05-25T13:45:48.086Z,99441.30
2023-05-25T13:50:50.571Z,99442.33
2023-05-25T13:55:52.596Z,99441.42
2023-05-25T14:00:54.607Z,99441.14
2023-05-25T14:05:57.019Z,99438.20
2023-05-25T14:10:59.029Z,99438.27
2023-05-25T14:16:01.191Z,99436.30
2023-05-25T14:21:03.627Z,99427.54
2023-05-25T14:26:05.761Z,99423.31
2023-05-25T14:31:07.897Z,99418.52
2023-05-25T14:36:11.134Z,99409.66
2023-05-25T14:41:13.166Z,99409.92
2023-05-25T14:46:18.364Z,99416.10
2023-05-25T14:51:20.462Z,99420.95
2023-05-25T14:56:23.667Z,99418.67
2023-05-25T15:01:29.953Z,99415.55
2023-05-25T15:06:34.694Z,99411.84
2023-05-25T15:11:36.991Z,99411.05
2023-05-25T15:16:39.067Z,99406.08
2023-05-25T15:21:41.216Z,99406.23
2023-05-25T15:26:43.852Z,99405.11
2023-05-25T15:31:46.245Z,99407.24
2023-05-25T15:36:50.453Z,99402.00
2023-05-25T15:41:52.246Z,99396.66
2023-05-25T15:46:54.258Z,99396.80
2023-05-25T15:51:56.225Z,99394.38
2023-05-25T15:56:58.071Z,99393.96
2023-05-25T16:02:00.248Z,99396.98
2023-05-25T16:07:04.332Z,99390.40
2023-05-25T16:12:07.261Z,99390.52
2023-05-25T16:17:09.201Z,99391.08
2023-05-25T16:22:11.157Z,99391.79
2023-05-25T16:27:13.324Z,99392.52
2023-05-25T16:32:15.520Z,99394.30
2023-05-25T16:37:17.780Z,99387.88
2023-05-25T16:42:19.941Z,99387.99
2023-05-25T16:47:22.732Z,99378.45
2023-05-25T16:52:24.714Z,99382.80
2023-05-25T16:57:27.493Z,99381.41
2023-05-25T17:02:29.637Z,99382.14
2023-05-25T17:07:33.353Z,99380.46
2023-05-25T17:12:35.555Z,99378.79
2023-05-25T17:17:37.617Z,99381.42
2023-05-25T17:22:39.764Z,99382.21
2023-05-25T17:27:41.817Z,99383.23
2023-05-25T17:32:43.811Z,99382.70
2023-05-25T17:37:45.721Z,99375.86
2023-05-25T17:42:47.672Z,99375.38
2023-05-25T17:47:50.181Z,99378.36
2023-05-25T17:52:52.289Z,99385.38
2023-05-25T17:57:54.351Z,99391.89
2023-05-25T18:02:56.544Z,99388.23
2023-05-25T18:07:58.772Z,99383.48
2023-05-25T18:13:01.015Z,99380.92
2023-05-25T18:18:05.720Z,99387.39
2023-05-25T18:23:08.369Z,99392.66
2023-05-25T18:28:12.326Z,99395.92
2023-05-25T18:33:14.518Z,99396.88
2023-05-25T18:38:16.449Z,99397.27
2023-05-25T18:43:18.584Z,99404.45
2023-05-25T18:48:21.215Z,99410.89
2023-05-25T18:53:23.190Z,99413.62
2023-05-25T18:58:25.041Z,99413.24
2023-05-25T19:03:27.591Z,99415.20
2023-05-25T19:08:29.711Z,99418.02
2023-05-25T19:13:31.667Z,99419.25
2023-05-25T19:18:33.370Z,99422.58
2023-05-25T19:23:35.404Z,99418.79
2023-05-25T19:28:37.401Z,99415.56
2023-05-25T19:33:39.263Z,99412.88
2023-05-25T19:38:42.366Z,99414.84
2023-05-25T19:43:44.507Z,99422.45
2023-05-25T19:48:46.369Z,99424.51
2023-05-25T19:53:49.102Z,99421.59
2023-05-25T19:58:51.107Z,99417.99
2023-05-25T20:03:56.033Z,99419.67
2023-05-25T20:08:58.553Z,99415.23
2023-05-25T20:14:03.335Z,99412.71
2023-05-25T20:19:11.069Z,99414.94
2023-05-25T20:24:22.234Z,99418.13
2023-05-25T20:29:27.488Z,99416.80
2023-05-25T20:34:34.122Z,99418.50
2023-05-25T20:39:36.575Z,99418.24
2023-05-25T20:44:42.134Z,99417.26
2023-05-25T20:49:44.263Z,99416.97
2023-05-25T20:54:48.795Z,99413.65
2023-05-25T20:59:54.397Z,99408.59
2023-05-25T21:05:05.253Z,99416.41
2023-05-25T21:10:15.716Z,99417.58
2023-05-25T21:15:32.678Z,99415.83
2023-05-25T21:20:39.895Z,99415.52
2023-05-25T21:25:42.321Z,99416.27
2023-05-25T21:30:49.824Z,99421.31
2023-05-25T21:36:02.579Z,99419.91
2023-05-25T21:41:15.458Z,99413.16
2023-05-25T21:46:21.243Z,99417.00
2023-05-25T21:51:34.436Z,99420.70
2023-05-25T21:56:52.105Z,99422.94
2023-05-25T22:02:14.859Z,99420.69
2023-05-25T22:07:30.792Z,99424.30
2023-05-25T22:12:36.651Z,99425.23
2023-05-25T22:17:41.687Z,99428.41
2023-05-25T22:23:04.612Z,99427.06
2023-05-25T22:28:10.813Z,99424.77
2023-05-25T22:33:17.904Z,99420.63
2023-05-25T22:38:25.443Z,99423.77
2023-05-25T22:43:55.624Z,99427.52
2023-05-25T22:49:06.410Z,99424.84
2023-05-25T22:54:36.788Z,99423.60
2023-05-25T22:59:51.224Z,99419.45
2023-05-25T23:05:09.753Z,99420.39
2023-05-25T23:10:27.005Z,99423.20
2023-05-25T23:15:44.313Z,99421.55
2023-05-25T23:20:59.977Z,99416.36
2023-05-25T23:26:22.158Z,99413.42
2023-05-25T23:31:41.040Z,99409.05
2023-05-25T23:36:49.277Z,99408.84
2023-05-25T23:42:10.297Z,99409.26
2023-05-25T23:47:16.371Z,99409.21
2023-05-25T23:52:48.846Z,99411.61
2023-05-25T23:58:36.157Z,99410.38
